createdAt,value
2018-09-29T00:00:54.855Z,66.8
2018-09-29T00:17:32.279Z,67.2
2018-09-29T00:34:08.215Z,67.6
2018-09-29T00:50:44.735Z,67.2
2018-09-29T01:07:21.260Z,67.6
2018-09-29T01:23:57.626Z,68.0
2018-09-29T01:40:33.841Z,68.4
2018-09-29T01:57:10.046Z,68.4
2018-09-29T02:13:46.126Z,68.8
2018-09-29T02:30:22.078Z,68.8
2018-09-29T02:46:58.013Z,69.2
2018-09-29T03:03:33.813Z,69.6
2018-09-29T03:20:10.128Z,70.0
2018-09-29T03:36:45.170Z,70.0
2018-09-29T03:53:20.738Z,70.4
2018-09-29T04:09:56.335Z,70.8
2018-09-29T04:26:31.759Z,70.4
2018-09-29T04:43:07.193Z,70.8
2018-09-29T04:59:43.219Z,71.6
2018-09-29T05:16:17.954Z,71.6
2018-09-29T05:32:53.244Z,71.6
2018-09-29T05:49:28.905Z,72.0
2018-09-29T06:06:04.784Z,72.0
2018-09-29T06:22:40.067Z,71.6
2018-09-29T06:39:16.131Z,71.6
2018-09-29T06:55:53.105Z,71.2
2018-09-29T07:12:29.596Z,71.2
2018-09-29T07:29:06.862Z,70.4
2018-09-29T07:45:44.687Z,69.6
2018-09-29T07:55:44.191Z,69.6
2018-09-29T08:29:00.963Z,67.6
2018-09-29T09:02:20.014Z,66.4
2018-09-29T09:15:40.090Z,65.6
2018-09-29T09:32:20.327Z,63.6
2018-09-29T09:49:01.247Z,62.8
2018-09-29T10:05:42.097Z,60.8
2018-09-29T10:22:23.493Z,60.0
2018-09-29T10:35:44.480Z,59.2
2018-09-29T10:52:26.132Z,57.6
2018-09-29T11:09:08.214Z,56.4
2018-09-29T11:25:50.185Z,56.0
2018-09-29T11:39:11.907Z,55.6
2018-09-29T11:45:52.884Z,53.2
2018-09-29T11:55:54.524Z,53.6
2018-09-29T12:12:36.405Z,52.8
2018-09-29T12:22:37.605Z,52.8
2018-09-29T12:39:20.884Z,52.4
2018-09-29T12:56:03.832Z,51.6
2018-09-29T13:12:45.953Z,50.4
2018-09-29T13:29:28.508Z,50.8
2018-09-29T13:46:11.269Z,50.4
2018-09-29T14:02:54.562Z,50.0
2018-09-29T14:19:36.740Z,49.6
2018-09-29T14:36:20.167Z,49.2
2018-09-29T14:53:03.126Z,49.6
2018-09-29T15:09:45.042Z,49.2
2018-09-29T15:26:28.094Z,49.6
2018-09-29T15:43:09.700Z,49.6
2018-09-29T15:59:53.196Z,49.6
2018-09-29T16:16:33.292Z,50.0
2018-09-29T16:33:14.890Z,50.4
2018-09-29T16:46:35.793Z,50.4
2018-09-29T17:03:16.702Z,50.8
2018-09-29T17:19:58.195Z,52.4
2018-09-29T17:36:37.347Z,53.6
2018-09-29T17:53:17.642Z,54.4
2018-09-29T18:09:58.011Z,55.2
2018-09-29T18:26:36.915Z,56.0
2018-09-29T18:43:16.473Z,56.4
2018-09-29T18:59:56.892Z,57.2
2018-09-29T19:16:34.756Z,58.0
2018-09-29T19:33:13.728Z,58.8
2018-09-29T19:49:54.004Z,58.8
2018-09-29T20:06:31.152Z,59.6
2018-09-29T20:23:09.444Z,59.6
2018-09-29T20:39:47.771Z,60.4
2018-09-29T20:56:25.978Z,61.2
2018-09-29T21:13:04.362Z,62.0
2018-09-29T21:29:42.147Z,62.4
2018-09-29T21:46:22.710Z,62.8
2018-09-29T22:02:58.028Z,63.6
2018-09-29T22:19:36.208Z,64.4
2018-09-29T22:36:12.721Z,65.2
2018-09-29T22:52:49.806Z,65.2
2018-09-29T23:09:26.555Z,66.0
2018-09-29T23:26:03.226Z,66.4
2018-09-29T23:42:39.794Z,66.8
2018-09-29T23:59:16.739Z,67.6
